createdAt,value
2018-06-14T05:47:38.301Z,3.03
2018-06-14T05:50:06.324Z,2.00
2018-06-14T05:52:34.396Z,5.17
2018-06-14T05:55:02.425Z,4.20
2018-06-14T05:57:30.469Z,2.67
2018-06-14T05:59:58.541Z,6.63
2018-06-14T06:02:26.593Z,2.70
2018-06-14T06:04:54.694Z,2.20
2018-06-14T06:07:22.777Z,2.63
2018-06-14T06:09:50.822Z,2.83
2018-06-14T06:12:18.968Z,3.20
2018-06-14T06:14:47.186Z,3.67
2018-06-14T06:17:15.243Z,3.13
2018-06-14T06:19:43.285Z,7.83
2018-06-14T06:22:11.216Z,2.20
2018-06-14T06:24:39.265Z,2.50
2018-06-14T06:27:07.510Z,1.80
2018-06-14T06:29:35.570Z,5.97
2018-06-14T06:32:03.625Z,2.37
2018-06-14T06:34:31.685Z,2.43
2018-06-14T06:36:59.742Z,3.10
2018-06-14T06:39:27.782Z,1.70
2018-06-14T06:41:55.852Z,3.33
2018-06-14T06:44:23.893Z,2.70
2018-06-14T06:46:51.961Z,2.00
2018-06-14T06:49:20.022Z,1.97
2018-06-14T06:51:48.060Z,2.70
2018-06-14T06:54:16.126Z,8.23
2018-06-14T06:56:44.189Z,3.87
2018-06-14T06:59:12.309Z,3.50
2018-06-14T07:01:40.357Z,5.53
2018-06-14T07:04:08.409Z,4.53
2018-06-14T07:06:36.466Z,3.67
2018-06-14T07:09:08.001Z,2.37
2018-06-14T07:11:36.042Z,3.17
2018-06-14T07:14:04.101Z,3.07
2018-06-14T07:16:32.146Z,3.17
2018-06-14T07:19:00.217Z,3.40
2018-06-14T07:21:28.457Z,7.57
2018-06-14T07:23:56.459Z,2.97
2018-06-14T07:26:24.539Z,4.57
2018-06-14T07:28:52.600Z,3.97
2018-06-14T07:31:20.648Z,9.37
2018-06-14T07:33:48.709Z,5.27
2018-06-14T07:36:16.773Z,5.30
2018-06-14T07:38:44.806Z,4.43
2018-06-14T07:41:12.652Z,3.20
2018-06-14T07:43:40.701Z,3.63
2018-06-14T07:46:08.772Z,3.90
2018-06-14T07:48:36.866Z,4.40
2018-06-14T07:51:04.942Z,4.73
2018-06-14T07:53:33.000Z,8.57
2018-06-14T07:56:01.057Z,3.23
2018-06-14T07:58:29.109Z,4.93
2018-06-14T08:00:57.165Z,18.70
2018-06-14T08:03:25.232Z,7.63
2018-06-14T08:05:53.276Z,6.47
2018-06-14T08:08:21.340Z,3.60
2018-06-14T08:10:49.398Z,4.67
2018-06-14T08:13:17.452Z,5.77
2018-06-14T08:15:45.497Z,5.70
2018-06-14T08:18:13.574Z,2.90
2018-06-14T08:20:41.644Z,3.37
2018-06-14T08:23:09.717Z,3.97
2018-06-14T08:25:37.816Z,5.53
2018-06-14T08:28:05.873Z,5.27
2018-06-14T08:30:33.942Z,5.90
2018-06-14T08:33:02.013Z,5.80
2018-06-14T08:35:30.109Z,4.97
2018-06-14T08:37:58.197Z,8.13
2018-06-14T08:40:26.208Z,5.73
2018-06-14T08:42:54.253Z,6.03
2018-06-14T08:45:22.080Z,7.97
2018-06-14T08:47:50.161Z,6.30
2018-06-14T08:50:18.203Z,5.43
2018-06-14T08:52:46.412Z,9.30
2018-06-14T08:55:14.622Z,7.00
2018-06-14T08:57:42.708Z,8.10
2018-06-14T09:00:10.589Z,8.07
2018-06-14T09:02:38.620Z,11.73
2018-06-14T09:05:06.667Z,5.67
2018-06-14T09:07:34.745Z,4.90
2018-06-14T09:10:02.791Z,7.87
2018-06-14T09:12:30.865Z,13.90
2018-06-14T09:14:58.917Z,7.10
2018-06-14T09:17:26.976Z,9.70
2018-06-14T09:19:55.033Z,5.43
2018-06-14T09:22:23.097Z,4.10
2018-06-14T09:24:51.271Z,9.37
2018-06-14T09:27:19.333Z,4.47
2018-06-14T09:29:47.396Z,4.67
2018-06-14T09:32:15.438Z,6.50
2018-06-14T09:34:43.550Z,7.33
2018-06-14T09:37:11.580Z,5.50
2018-06-14T09:39:39.748Z,4.57
2018-06-14T09:42:07.809Z,5.70
2018-06-14T09:44:35.901Z,11.33
2018-06-14T09:47:03.949Z,6.23
2018-06-14T09:49:31.994Z,5.13
2018-06-14T09:52:00.043Z,6.03
2018-06-14T09:54:28.087Z,6.50
2018-06-14T09:56:56.252Z,6.73
2018-06-14T09:59:24.288Z,3.50
2018-06-14T10:01:52.345Z,4.53
2018-06-14T10:04:20.490Z,5.30
2018-06-14T10:06:48.754Z,2.83
2018-06-14T10:09:16.694Z,2.77
2018-06-14T10:11:44.808Z,6.10
2018-06-14T10:14:12.852Z,7.20
2018-06-14T10:16:40.969Z,5.93
2018-06-14T10:19:09.113Z,5.03
2018-06-14T10:21:37.257Z,3.63
2018-06-14T10:24:05.340Z,3.97
2018-06-14T10:26:33.517Z,8.87
2018-06-14T10:29:01.553Z,3.63
2018-06-14T10:31:29.613Z,3.93
2018-06-14T10:33:57.662Z,6.80
2018-06-14T10:36:25.726Z,11.83
2018-06-14T10:38:53.765Z,6.40
2018-06-14T10:41:21.832Z,3.67
2018-06-14T10:43:49.868Z,4.73
2018-06-14T10:46:17.927Z,11.77
2018-06-14T10:48:45.988Z,8.70
2018-06-14T10:51:14.040Z,6.20
2018-06-14T10:53:42.076Z,5.03
2018-06-14T10:56:10.170Z,6.60
2018-06-14T10:58:38.212Z,4.53
2018-06-14T11:01:06.296Z,6.87
2018-06-14T11:03:34.348Z,4.83
2018-06-14T11:06:02.496Z,4.73
2018-06-14T11:08:30.502Z,4.87
2018-06-14T11:10:58.540Z,7.53
2018-06-14T11:13:26.619Z,8.83
2018-06-14T11:15:54.686Z,4.00
2018-06-14T11:18:22.740Z,4.20
2018-06-14T11:20:50.778Z,3.70
2018-06-14T11:23:18.807Z,2.97
2018-06-14T11:25:46.886Z,4.00
2018-06-14T11:28:14.933Z,5.77
2018-06-14T11:30:42.963Z,3.30
2018-06-14T11:33:11.146Z,5.10
2018-06-14T11:35:39.281Z,2.40
2018-06-14T11:38:07.322Z,3.23
2018-06-14T11:40:35.378Z,3.43
2018-06-14T11:43:03.425Z,4.83
2018-06-14T11:45:31.492Z,3.97
2018-06-14T11:47:59.544Z,4.07
2018-06-14T11:50:27.630Z,6.03
2018-06-14T11:52:55.610Z,7.07
2018-06-14T11:55:23.877Z,4.60
2018-06-14T11:57:51.897Z,4.10
2018-06-14T12:00:19.937Z,5.50
2018-06-14T12:02:48.013Z,3.60
2018-06-14T12:05:16.047Z,4.47
2018-06-14T12:07:44.178Z,12.17
2018-06-14T12:10:12.226Z,9.07
2018-06-14T12:12:40.326Z,2.97
2018-06-14T12:15:08.386Z,4.37
2018-06-14T12:17:36.469Z,4.20
2018-06-14T12:20:04.700Z,3.23
2018-06-14T12:22:32.841Z,4.70
2018-06-14T12:25:00.888Z,2.50
2018-06-14T12:27:28.933Z,5.33
2018-06-14T12:29:57.009Z,5.90
2018-06-14T12:32:25.052Z,4.87
2018-06-14T12:34:53.121Z,4.13
2018-06-14T12:37:21.077Z,4.47
2018-06-14T12:39:49.108Z,8.47
2018-06-14T12:42:17.174Z,5.67
2018-06-14T12:44:45.310Z,3.07
2018-06-14T12:47:13.366Z,7.20
2018-06-14T12:49:41.452Z,5.97
2018-06-14T12:52:09.461Z,4.57
2018-06-14T12:54:37.516Z,6.73
2018-06-14T12:57:05.721Z,6.10
2018-06-14T12:59:33.783Z,9.07
2018-06-14T13:02:01.846Z,5.20
2018-06-14T13:04:29.925Z,5.53
2018-06-14T13:06:58.034Z,5.10
2018-06-14T13:09:26.076Z,10.33
2018-06-14T13:11:54.199Z,7.83
2018-06-14T13:14:22.254Z,3.90
2018-06-14T13:16:50.336Z,4.67
2018-06-14T13:19:18.510Z,3.53
2018-06-14T13:21:46.561Z,5.20
2018-06-14T13:24:14.621Z,4.77
2018-06-14T13:26:42.653Z,3.60
2018-06-14T13:29:10.725Z,5.73
2018-06-14T13:31:38.768Z,5.57
2018-06-14T13:34:06.860Z,3.90
2018-06-14T13:36:35.396Z,8.97
2018-06-14T13:39:03.822Z,14.57
2018-06-14T13:41:31.886Z,7.70
2018-06-14T13:43:59.752Z,5.50
2018-06-14T13:46:27.824Z,11.40
2018-06-14T13:48:56.292Z,7.33
2018-06-14T13:51:24.244Z,3.33
2018-06-14T13:53:52.411Z,5.27
2018-06-14T13:56:20.449Z,5.57
2018-06-14T13:58:48.638Z,7.83
2018-06-14T14:01:16.855Z,4.90
2018-06-14T14:03:44.718Z,6.50
2018-06-14T14:06:12.816Z,6.40
2018-06-14T14:08:40.871Z,8.30
2018-06-14T14:11:08.947Z,5.40
2018-06-14T14:13:37.013Z,7.53
2018-06-14T14:16:06.076Z,5.97
2018-06-14T14:18:34.141Z,13.40
2018-06-14T14:21:02.200Z,13.37
2018-06-14T14:23:30.256Z,5.77
2018-06-14T14:25:58.345Z,9.90
2018-06-14T14:28:26.376Z,6.73
2018-06-14T14:30:54.410Z,6.07
2018-06-14T14:33:22.471Z,9.37
2018-06-14T14:35:50.606Z,6.40
2018-06-14T14:38:18.695Z,11.57
2018-06-14T14:40:46.746Z,21.13
2018-06-14T14:43:14.849Z,10.80
2018-06-14T14:45:42.944Z,8.43
2018-06-14T14:48:10.997Z,8.33
2018-06-14T14:50:39.176Z,6.67
2018-06-14T14:53:07.292Z,5.00
2018-06-14T14:55:35.309Z,7.43
2018-06-14T14:58:04.102Z,6.83
2018-06-14T15:00:32.162Z,6.07
2018-06-14T15:03:00.216Z,7.10
2018-06-14T15:05:29.396Z,6.83
2018-06-14T15:07:57.405Z,4.83
2018-06-14T15:10:25.503Z,8.53
2018-06-14T15:12:53.545Z,14.93
2018-06-14T15:15:21.589Z,8.30
2018-06-14T15:17:49.666Z,4.47
2018-06-14T15:20:17.710Z,12.17
2018-06-14T15:22:45.749Z,5.60
2018-06-14T15:25:13.800Z,6.70
2018-06-14T15:27:41.841Z,7.33
2018-06-14T15:30:09.934Z,12.43
2018-06-14T15:32:38.106Z,7.03
2018-06-14T15:35:06.148Z,11.50
2018-06-14T15:37:34.212Z,6.00
2018-06-14T15:40:02.237Z,7.90
2018-06-14T15:42:30.332Z,8.97
2018-06-14T15:44:58.462Z,6.03
2018-06-14T15:47:26.728Z,11.07
2018-06-14T15:49:54.784Z,6.83
2018-06-14T15:52:22.859Z,9.77
2018-06-14T15:55:02.511Z,20.00
2018-06-14T15:57:31.649Z,12.57
2018-06-14T15:59:59.736Z,7.47
2018-06-14T16:02:27.809Z,13.73
2018-06-14T16:04:55.937Z,14.70
2018-06-14T16:07:23.913Z,11.57
2018-06-14T16:09:51.973Z,14.13
2018-06-14T16:12:20.152Z,12.13
2018-06-14T16:14:48.285Z,9.00
2018-06-14T16:17:16.333Z,11.40
2018-06-14T16:19:44.468Z,9.67
2018-06-14T16:22:12.616Z,11.50
2018-06-14T16:24:40.677Z,11.00
2018-06-14T16:27:08.745Z,10.80
2018-06-14T16:29:36.818Z,11.10
2018-06-14T16:32:06.615Z,9.67
2018-06-14T16:34:34.776Z,16.67
2018-06-14T16:37:02.945Z,9.57
2018-06-14T16:39:31.044Z,19.00
2018-06-14T16:41:59.574Z,14.57
2018-06-14T16:44:27.624Z,10.87
2018-06-14T16:46:56.135Z,9.63
2018-06-14T16:49:26.022Z,15.93
2018-06-14T16:51:54.462Z,10.83
2018-06-14T16:54:22.561Z,8.23
2018-06-14T16:56:50.649Z,12.43
2018-06-14T16:59:18.708Z,9.83
2018-06-14T17:01:46.748Z,10.27
2018-06-14T17:04:14.989Z,12.90
2018-06-14T17:06:43.089Z,11.37
2018-06-14T17:09:11.201Z,10.93
2018-06-14T17:11:39.113Z,11.53
2018-06-14T17:14:07.896Z,9.20
2018-06-14T17:16:35.876Z,11.53
2018-06-14T17:19:03.957Z,9.73
2018-06-14T17:21:31.988Z,9.10
2018-06-14T17:24:00.154Z,8.57
2018-06-14T17:26:28.209Z,11.47
2018-06-14T17:28:56.301Z,12.83
2018-06-14T17:31:24.353Z,8.23
2018-06-14T17:33:52.532Z,10.40
2018-06-14T17:36:20.676Z,8.07
2018-06-14T17:38:48.800Z,8.57
2018-06-14T17:41:16.893Z,8.20
2018-06-14T17:43:44.806Z,9.30
2018-06-14T17:46:13.220Z,11.00
2018-06-14T17:48:41.201Z,9.40
2018-06-14T17:51:09.267Z,11.33
2018-06-14T17:53:37.251Z,18.40
2018-06-14T17:56:05.374Z,12.37
2018-06-14T17:58:33.502Z,11.47
2018-06-14T18:01:01.404Z,12.63
2018-06-14T18:03:29.587Z,11.10
2018-06-14T18:05:57.741Z,9.77
2018-06-14T18:08:25.832Z,8.20
2018-06-14T18:10:53.942Z,10.00
2018-06-14T18:13:22.120Z,14.03
2018-06-14T18:15:50.281Z,10.93
2018-06-14T18:18:18.363Z,8.00
2018-06-14T18:20:46.558Z,8.60
2018-06-14T18:23:14.649Z,12.93
2018-06-14T18:25:42.811Z,9.60
2018-06-14T18:28:11.639Z,12.90
2018-06-14T18:30:39.596Z,11.43
2018-06-14T18:33:07.674Z,16.13
2018-06-14T18:35:35.730Z,9.17
2018-06-14T18:38:03.822Z,11.03
2018-06-14T18:40:31.856Z,9.70
2018-06-14T18:43:00.036Z,10.43
2018-06-14T18:45:28.093Z,7.43
2018-06-14T18:47:56.124Z,13.90
2018-06-14T18:50:24.209Z,9.97
2018-06-14T18:52:52.265Z,6.77
2018-06-14T18:55:20.332Z,9.20
2018-06-14T18:57:48.563Z,9.83
2018-06-14T19:00:16.633Z,11.17
2018-06-14T19:02:44.572Z,7.20
2018-06-14T19:05:12.643Z,11.00
2018-06-14T19:07:40.928Z,8.77
2018-06-14T19:10:08.992Z,12.53
2018-06-14T19:12:37.060Z,10.37
2018-06-14T19:15:05.584Z,14.27
2018-06-14T19:17:33.779Z,15.27
2018-06-14T19:20:02.604Z,8.20
2018-06-14T19:22:30.855Z,10.77
2018-06-14T19:24:58.821Z,11.83
2018-06-14T19:27:26.821Z,9.73
2018-06-14T19:29:54.869Z,11.20
2018-06-14T19:32:22.961Z,8.07
2018-06-14T19:34:51.033Z,12.70
2018-06-14T19:37:19.117Z,9.43
2018-06-14T19:39:47.159Z,11.77
2018-06-14T19:42:15.341Z,12.60
2018-06-14T19:44:43.423Z,12.83
2018-06-14T19:47:11.494Z,10.73
2018-06-14T19:49:39.605Z,12.07
2018-06-14T19:52:07.652Z,10.60
2018-06-14T19:54:35.718Z,12.30
2018-06-14T19:57:03.771Z,11.40
2018-06-14T19:59:31.829Z,14.10
2018-06-14T20:01:59.977Z,14.97
2018-06-14T20:04:28.059Z,14.67
2018-06-14T20:06:56.157Z,12.27
2018-06-14T20:09:24.397Z,11.33
2018-06-14T20:11:52.336Z,10.70
2018-06-14T20:14:20.423Z,10.73
2018-06-14T20:16:48.541Z,12.50
2018-06-14T20:19:16.614Z,8.47
2018-06-14T20:21:45.575Z,16.73
2018-06-14T20:24:13.627Z,13.43
2018-06-14T20:26:41.734Z,8.70
2018-06-14T20:29:09.809Z,15.97
2018-06-14T20:31:37.889Z,16.53
2018-06-14T20:34:05.947Z,35.40
2018-06-14T20:36:34.025Z,16.00
2018-06-14T20:39:02.097Z,8.93
2018-06-14T20:41:30.172Z,9.13
2018-06-14T20:43:58.325Z,14.83
2018-06-14T20:46:26.400Z,11.00
2018-06-14T20:48:54.508Z,15.80
2018-06-14T20:51:22.536Z,13.10
2018-06-14T20:53:50.646Z,13.70
2018-06-14T20:56:18.729Z,16.47
2018-06-14T20:58:46.878Z,10.53
2018-06-14T21:01:15.065Z,10.73
2018-06-14T21:03:43.213Z,15.80
2018-06-14T21:06:12.769Z,8.90
2018-06-14T21:08:40.928Z,16.70
2018-06-14T21:11:09.169Z,21.50
2018-06-14T21:13:37.212Z,12.23
2018-06-14T21:16:05.436Z,15.13
2018-06-14T21:18:33.517Z,9.37
2018-06-14T21:21:01.457Z,11.43
2018-06-14T21:23:29.537Z,15.13
2018-06-14T21:25:57.589Z,11.00
2018-06-14T21:28:25.665Z,13.67
2018-06-14T21:30:53.734Z,18.23
2018-06-14T21:33:21.837Z,14.43
2018-06-14T21:35:49.908Z,11.73
2018-06-14T21:38:18.229Z,17.47
2018-06-14T21:40:46.343Z,13.00
2018-06-14T21:43:14.645Z,13.57
2018-06-14T21:45:42.705Z,9.83
2018-06-14T21:48:10.801Z,10.07
2018-06-14T21:50:39.941Z,9.70
2018-06-14T21:53:08.037Z,9.80
2018-06-14T21:55:36.200Z,12.60
2018-06-14T21:58:04.281Z,14.43
2018-06-14T22:00:32.341Z,13.30
2018-06-14T22:03:05.989Z,15.43
2018-06-14T22:05:34.107Z,14.47
2018-06-14T22:08:03.247Z,13.73
2018-06-14T22:10:31.308Z,11.90
2018-06-14T22:12:59.373Z,14.27
2018-06-14T22:15:27.244Z,14.47
2018-06-14T22:17:55.313Z,12.47
2018-06-14T22:20:23.252Z,19.87
2018-06-14T22:22:51.346Z,14.63
2018-06-14T22:25:19.421Z,15.00
2018-06-14T22:27:47.580Z,14.53
2018-06-14T22:30:15.669Z,13.80
2018-06-14T22:32:43.788Z,13.27
2018-06-14T22:35:21.636Z,14.17
2018-06-14T22:37:49.699Z,17.77
2018-06-14T22:40:17.781Z,13.17
2018-06-14T22:42:45.862Z,12.27
2018-06-14T22:45:13.921Z,16.53
2018-06-14T22:47:42.052Z,13.80
2018-06-14T22:50:10.263Z,20.97
2018-06-14T22:52:49.562Z,17.20
2018-06-14T22:55:18.040Z,19.47
2018-06-14T22:57:46.603Z,13.57
2018-06-14T23:02:33.457Z,15.70
2018-06-14T23:05:01.538Z,14.67
2018-06-14T23:07:29.591Z,13.97
2018-06-14T23:10:19.576Z,13.90
2018-06-14T23:12:47.682Z,15.57
2018-06-14T23:15:16.662Z,15.00
2018-06-14T23:17:45.533Z,15.60
2018-06-14T23:20:14.496Z,16.60
2018-06-14T23:22:42.713Z,15.63
2018-06-14T23:25:10.793Z,17.47
2018-06-14T23:27:38.865Z,13.93
2018-06-14T23:30:06.921Z,15.33
2018-06-14T23:32:34.985Z,16.30
2018-06-14T23:35:03.054Z,21.37
2018-06-14T23:37:31.124Z,20.40
2018-06-14T23:39:59.152Z,12.27
2018-06-14T23:42:27.229Z,14.27
2018-06-14T23:44:56.657Z,16.20
2018-06-14T23:47:24.773Z,17.63
2018-06-14T23:49:52.821Z,17.30
2018-06-14T23:52:20.869Z,21.53
2018-06-14T23:54:49.257Z,14.27
2018-06-14T23:57:17.641Z,18.33
2018-06-14T23:59:45.692Z,17.73
